sensor_id;sensor_type;location;lat;lon;timestamp;pressure;altitude;pressure_sealevel;temperature;humidity
4012;BME280;2020;48.682;9.024;2023-04-08T00:01:47;96640.72;;;6.25;100.00
4012;BME280;2020;48.682;9.024;2023-04-08T00:04:12;96636.94;;;6.29;100.00
4012;BME280;2020;48.682;9.024;2023-04-08T00:06:38;96641.88;;;6.32;100.00
4012;BME280;2020;48.682;9.024;2023-04-08T00:09:03;96642.13;;;6.29;100.00
4012;BME280;2020;48.682;9.024;2023-04-08T00:11:29;96644.00;;;6.27;100.00
4012;BME280;2020;48.682;9.024;2023-04-08T00:13:55;96654.34;;;6.27;100.00
4012;BME280;2020;48.682;9.024;2023-04-08T00:16:20;96644.25;;;6.24;100.00
4012;BME280;2020;48.682;9.024;2023-04-08T00:18:46;96646.69;;;6.25;100.00
4012;BME280;2020;48.682;9.024;2023-04-08T00:21:13;96654.34;;;6.27;100.00
4012;BME280;2020;48.682;9.024;2023-04-08T00:23:40;96649.28;;;6.25;100.00
4012;BME280;2020;48.682;9.024;2023-04-08T00:26:05;96651.63;;;6.28;100.00
4012;BME280;2020;48.682;9.024;2023-04-08T00:28:31;96660.47;;;6.26;100.00
4012;BME280;2020;48.682;9.024;2023-04-08T00:30:56;96655.97;;;6.28;100.00
4012;BME280;2020;48.682;9.024;2023-04-08T00:33:22;96661.16;;;6.28;100.00
4012;BME280;2020;48.682;9.024;2023-04-08T00:35:48;96661.41;;;6.25;100.00
4012;BME280;2020;48.682;9.024;2023-04-08T00:38:15;96659.75;;;6.24;100.00
4012;BME280;2020;48.682;9.024;2023-04-08T00:40:40;96654.59;;;6.24;100.00
4012;BME280;2020;48.682;9.024;2023-04-08T00:43:05;96658.38;;;6.20;100.00
4012;BME280;2020;48.682;9.024;2023-04-08T00:45:32;96657.91;;;6.14;100.00
4012;BME280;2020;48.682;9.024;2023-04-08T00:47:57;96664.28;;;6.10;100.00
4012;BME280;2020;48.682;9.024;2023-04-08T00:50:23;96667.81;;;6.09;100.00
4012;BME280;2020;48.682;9.024;2023-04-08T00:52:48;96666.72;;;6.12;100.00
4012;BME280;2020;48.682;9.024;2023-04-08T00:55:13;96667.81;;;6.09;100.00
4012;BME280;2020;48.682;9.024;2023-04-08T00:57:39;96668.75;;;6.08;100.00
4012;BME280;2020;48.682;9.024;2023-04-08T01:00:06;96674.59;;;6.10;100.00
4012;BME280;2020;48.682;9.024;2023-04-08T01:02:35;96668.59;;;6.10;100.00
4012;BME280;2020;48.682;9.024;2023-04-08T01:05:10;96674.25;;;6.04;100.00
4012;BME280;2020;48.682;9.024;2023-04-08T01:07:44;96670.72;;;6.05;100.00
4012;BME280;2020;48.682;9.024;2023-04-08T01:10:26;96663.13;;;6.03;100.00
4012;BME280;2020;48.682;9.024;2023-04-08T01:12:55;96673.47;;;6.03;100.00
4012;BME280;2020;48.682;9.024;2023-04-08T01:15:21;96665.69;;;6.03;100.00
4012;BME280;2020;48.682;9.024;2023-04-08T01:17:52;96664.88;;;6.03;100.00
4012;BME280;2020;48.682;9.024;2023-04-08T01:20:18;96666.66;;;6.02;100.00
4012;BME280;2020;48.682;9.024;2023-04-08T01:25:32;96673.47;;;6.03;100.00
4012;BME280;2020;48.682;9.024;2023-04-08T01:28:03;96672.38;;;6.06;100.00
4012;BME280;2020;48.682;9.024;2023-04-08T01:30:29;96670.25;;;5.99;100.00
4012;BME280;2020;48.682;9.024;2023-04-08T01:32:56;96670.59;;;5.95;100.00
4012;BME280;2020;48.682;9.024;2023-04-08T01:35:23;96663.56;;;5.97;100.00
4012;BME280;2020;48.682;9.024;2023-04-08T01:37:50;96662.97;;;5.93;100.00
4012;BME280;2020;48.682;9.024;2023-04-08T01:40:17;96656.75;;;5.96;100.00
4012;BME280;2020;48.682;9.024;2023-04-08T01:42:44;96660.75;;;6.00;100.00
4012;BME280;2020;48.682;9.024;2023-04-08T01:45:11;96663.34;;;6.00;100.00
4012;BME280;2020;48.682;9.024;2023-04-08T01:47:38;96663.56;;;5.97;100.00
4012;BME280;2020;48.682;9.024;2023-04-08T01:50:05;96658.06;;;5.90;100.00
4012;BME280;2020;48.682;9.024;2023-04-08T01:52:33;96660.50;;;5.92;100.00
4012;BME280;2020;48.682;9.024;2023-04-08T01:54:59;96658.63;;;5.94;100.00
4012;BME280;2020;48.682;9.024;2023-04-08T01:57:27;96661.91;;;5.96;100.00
4012;BME280;2020;48.682;9.024;2023-04-08T01:59:57;96660.75;;;5.89;100.00
4012;BME280;2020;48.682;9.024;2023-04-08T02:02:24;96663.34;;;5.89;100.00
4012;BME280;2020;48.682;9.024;2023-04-08T02:04:51;96663.78;;;5.94;100.00
4012;BME280;2020;48.682;9.024;2023-04-08T02:07:17;96660.75;;;5.89;100.00
4012;BME280;2020;48.682;9.024;2023-04-08T02:09:42;96663.56;;;5.85;100.00
4012;BME280;2020;48.682;9.024;2023-04-08T02:12:08;96658.31;;;5.87;100.00
4012;BME280;2020;48.682;9.024;2023-04-08T02:14:33;96659.09;;;5.88;100.00
4012;BME280;2020;48.682;9.024;2023-04-08T02:19:35;96659.34;;;5.84;100.00
4012;BME280;2020;48.682;9.024;2023-04-08T02:22:09;96655.59;;;5.89;100.00
4012;BME280;2020;48.682;9.024;2023-04-08T02:24:37;96666.63;;;5.91;100.00
4012;BME280;2020;48.682;9.024;2023-04-08T02:27:03;96660.75;;;5.89;100.00
4012;BME280;2020;48.682;9.024;2023-04-08T02:29:30;96661.00;;;5.85;100.00
4012;BME280;2020;48.682;9.024;2023-04-08T02:31:56;96667.94;;;5.85;100.00
4012;BME280;2020;48.682;9.024;2023-04-08T02:34:23;96659.09;;;5.88;100.00
4012;BME280;2020;48.682;9.024;2023-04-08T02:36:49;96658.31;;;5.87;100.00
4012;BME280;2020;48.682;9.024;2023-04-08T02:39:15;96662.88;;;5.83;100.00
4012;BME280;2020;48.682;9.024;2023-04-08T02:41:40;96663.59;;;5.74;100.00
4012;BME280;2020;48.682;9.024;2023-04-08T02:44:06;96664.91;;;5.68;100.00
4012;BME280;2020;48.682;9.024;2023-04-08T02:46:31;96667.59;;;5.67;100.00
4012;BME280;2020;48.682;9.024;2023-04-08T02:48:56;96663.28;;;5.67;100.00
4012;BME280;2020;48.682;9.024;2023-04-08T02:51:21;96663.13;;;5.69;100.00
4012;BME280;2020;48.682;9.024;2023-04-08T02:53:47;96667.59;;;5.67;100.00
4012;BME280;2020;48.682;9.024;2023-04-08T02:56:12;96667.38;;;5.70;100.00
4012;BME280;2020;48.682;9.024;2023-04-08T02:58:37;96669.00;;;5.71;100.00
4012;BME280;2020;48.682;9.024;2023-04-08T03:01:03;96664.78;;;5.70;100.00
4012;BME280;2020;48.682;9.024;2023-04-08T03:03:29;96666.66;;;5.68;100.00
4012;BME280;2020;48.682;9.024;2023-04-08T03:05:55;96667.59;;;5.67;100.00
4012;BME280;2020;48.682;9.024;2023-04-08T03:08:21;96674.66;;;5.65;100.00
4012;BME280;2020;48.682;9.024;2023-04-08T03:10:47;96667.84;;;5.64;100.00
4012;BME280;2020;48.682;9.024;2023-04-08T03:13:13;96668.09;;;5.61;100.00
4012;BME280;2020;48.682;9.024;2023-04-08T03:15:38;96663.63;;;5.63;100.00
4012;BME280;2020;48.682;9.024;2023-04-08T03:18:03;96664.56;;;5.62;100.00
4012;BME280;2020;48.682;9.024;2023-04-08T03:20:29;96668.56;;;5.54;100.00
4012;BME280;2020;48.682;9.024;2023-04-08T03:22:54;96659.88;;;5.55;100.00
4012;BME280;2020;48.682;9.024;2023-04-08T03:25:20;96664.00;;;5.58;100.00
4012;BME280;2020;48.682;9.024;2023-04-08T03:27:45;96669.25;;;5.56;100.00
4012;BME280;2020;48.682;9.024;2023-04-08T03:30:10;96661.75;;;5.53;100.00
4012;BME280;2020;48.682;9.024;2023-04-08T03:32:36;96661.06;;;5.51;100.00
4012;BME280;2020;48.682;9.024;2023-04-08T03:35:01;96664.34;;;5.53;100.00
4012;BME280;2020;48.682;9.024;2023-04-08T03:37:26;96665.03;;;5.55;100.00
4012;BME280;2020;48.682;9.024;2023-04-08T03:39:53;96666.91;;;5.53;100.00
4012;BME280;2020;48.682;9.024;2023-04-08T03:42:19;96662.44;;;5.55;100.00
4012;BME280;2020;48.682;9.024;2023-04-08T03:44:44;96666.69;;;5.56;100.00
4012;BME280;2020;48.682;9.024;2023-04-08T03:47:09;96669.41;;;5.55;100.00
4012;BME280;2020;48.682;9.024;2023-04-08T03:49:35;96667.84;;;5.52;100.00
4012;BME280;2020;48.682;9.024;2023-04-08T03:52:00;96663.88;;;5.48;100.00
4012;BME280;2020;48.682;9.024;2023-04-08T03:54:26;96662.69;;;5.52;100.00
4012;BME280;2020;48.682;9.024;2023-04-08T03:56:51;96665.28;;;5.52;100.00
4012;BME280;2020;48.682;9.024;2023-04-08T03:59:16;96663.06;;;5.48;100.00
4012;BME280;2020;48.682;9.024;2023-04-08T04:01:41;96665.75;;;5.46;100.00
4012;BME280;2020;48.682;9.024;2023-04-08T04:04:07;96664.81;;;5.47;100.00
4012;BME280;2020;48.682;9.024;2023-04-08T04:06:32;96658.94;;;5.45;100.00
4012;BME280;2020;48.682;9.024;2023-04-08T04:08:57;96669.03;;;5.48;100.00
4012;BME280;2020;48.682;9.024;2023-04-08T04:11:22;96672.09;;;5.53;100.00
4012;BME280;2020;48.682;9.024;2023-04-08T04:13:48;96671.63;;;5.48;100.00
4012;BME280;2020;48.682;9.024;2023-04-08T04:16:13;96676.06;;;5.46;100.00
4012;BME280;2020;48.682;9.024;2023-04-08T04:18:38;96672.78;;;5.44;100.00
4012;BME280;2020;48.682;9.024;2023-04-08T04:21:04;96677.97;;;5.44;100.00
4012;BME280;2020;48.682;9.024;2023-04-08T04:23:30;96676.06;;;5.46;100.00
4012;BME280;2020;48.682;9.024;2023-04-08T04:25:56;96676.06;;;5.46;100.00
4012;BME280;2020;48.682;9.024;2023-04-08T04:28:21;96682.41;;;5.53;100.00
4012;BME280;2020;48.682;9.024;2023-04-08T04:30:46;96684.53;;;5.48;100.00
4012;BME280;2020;48.682;9.024;2023-04-08T04:33:11;96689.44;;;5.51;100.00
4012;BME280;2020;48.682;9.024;2023-04-08T04:35:38;96685.13;;;5.52;100.00
4012;BME280;2020;48.682;9.024;2023-04-08T04:38:03;96691.78;;;5.54;100.00
4012;BME280;2020;48.682;9.024;2023-04-08T04:40:34;96686.63;;;5.54;100.00
4012;BME280;2020;48.682;9.024;2023-04-08T04:42:59;96682.19;;;5.45;100.00
4012;BME280;2020;48.682;9.024;2023-04-08T04:45:25;96680.66;;;5.43;100.00
4012;BME280;2020;48.682;9.024;2023-04-08T04:47:50;96684.28;;;5.40;100.00
4012;BME280;2020;48.682;9.024;2023-04-08T04:50:15;96683.50;;;5.39;100.00
4012;BME280;2020;48.682;9.024;2023-04-08T04:52:41;96683.13;;;5.44;100.00
4012;BME280;2020;48.682;9.024;2023-04-08T04:55:06;96689.94;;;5.45;100.00
4012;BME280;2020;48.682;9.024;2023-04-08T04:57:31;96692.63;;;5.44;100.00
4012;BME280;2020;48.682;9.024;2023-04-08T04:59:57;96690.41;;;5.39;100.00
4012;BME280;2020;48.682;9.024;2023-04-08T05:02:22;96697.19;;;5.40;100.00
4012;BME280;2020;48.682;9.024;2023-04-08T05:04:47;96696.97;;;5.43;100.00
4012;BME280;2020;48.682;9.024;2023-04-08T05:07:12;96702.72;;;5.47;100.00
4012;BME280;2020;48.682;9.024;2023-04-08T05:09:38;96703.78;;;5.44;100.00
4012;BME280;2020;48.682;9.024;2023-04-08T05:12:03;96714.94;;;5.45;100.00
4012;BME280;2020;48.682;9.024;2023-04-08T05:14:29;96714.94;;;5.45;100.00
4012;BME280;2020;48.682;9.024;2023-04-08T05:16:54;96705.66;;;5.42;100.00
4012;BME280;2020;48.682;9.024;2023-04-08T05:19:20;96714.56;;;5.38;100.00
4012;BME280;2020;48.682;9.024;2023-04-08T05:21:45;96716.22;;;5.39;100.00
4012;BME280;2020;48.682;9.024;2023-04-08T05:24:10;96714.34;;;5.41;100.00
4012;BME280;2020;48.682;9.024;2023-04-08T05:26:36;96715.03;;;5.43;100.00
4012;BME280;2020;48.682;9.024;2023-04-08T05:29:01;96717.63;;;5.43;100.00
4012;BME280;2020;48.682;9.024;2023-04-08T05:31:27;96719.03;;;5.47;100.00
4012;BME280;2020;48.682;9.024;2023-04-08T05:33:52;96723.38;;;5.47;100.00
4012;BME280;2020;48.682;9.024;2023-04-08T05:36:17;96709.88;;;5.43;100.00
4012;BME280;2020;48.682;9.024;2023-04-08T05:38:43;96715.75;;;5.45;100.00
4012;BME280;2020;48.682;9.024;2023-04-08T05:41:09;96722.53;;;5.46;100.00
4012;BME280;2020;48.682;9.024;2023-04-08T05:43:35;96724.19;;;5.47;100.00
4012;BME280;2020;48.682;9.024;2023-04-08T05:46:05;96727.47;;;5.49;100.00
4012;BME280;2020;48.682;9.024;2023-04-08T05:48:31;96728.31;;;5.50;100.00
4012;BME280;2020;48.682;9.024;2023-04-08T05:50:57;96727.94;;;5.54;100.00
4012;BME280;2020;48.682;9.024;2023-04-08T05:53:22;96730.75;;;5.63;100.00
4012;BME280;2020;48.682;9.024;2023-04-08T05:55:49;96731.47;;;5.65;100.00
4012;BME280;2020;48.682;9.024;2023-04-08T05:58:14;96727.72;;;5.69;100.00
4012;BME280;2020;48.682;9.024;2023-04-08T06:00:40;96737.31;;;5.78;100.00
4012;BME280;2020;48.682;9.024;2023-04-08T06:03:05;96732.75;;;5.82;100.00
4012;BME280;2020;48.682;9.024;2023-04-08T06:05:30;96738.50;;;5.85;100.00
4012;BME280;2020;48.682;9.024;2023-04-08T06:07:56;96748.13;;;5.83;100.00
4012;BME280;2020;48.682;9.024;2023-04-08T06:10:21;96749.06;;;5.82;100.00
4012;BME280;2020;48.682;9.024;2023-04-08T06:12:46;96749.06;;;5.82;100.00
4012;BME280;2020;48.682;9.024;2023-04-08T06:15:11;96756.72;;;5.84;100.00
4012;BME280;2020;48.682;9.024;2023-04-08T06:17:37;96750.13;;;5.80;100.00
4012;BME280;2020;48.682;9.024;2023-04-08T06:20:06;96754.22;;;5.82;100.00
4012;BME280;2020;48.682;9.024;2023-04-08T06:22:34;96756.00;;;5.82;100.00
4012;BME280;2020;48.682;9.024;2023-04-08T06:25:00;96756.34;;;5.77;100.00
4012;BME280;2020;48.682;9.024;2023-04-08T06:27:25;96754.22;;;5.82;100.00
4012;BME280;2020;48.682;9.024;2023-04-08T06:29:50;96758.91;;;5.89;100.00
4012;BME280;2020;48.682;9.024;2023-04-08T06:32:16;96761.75;;;5.97;100.00
4012;BME280;2020;48.682;9.024;2023-04-08T06:34:44;96756.94;;;5.92;100.00
4012;BME280;2020;48.682;9.024;2023-04-08T06:37:09;96757.03;;;5.91;99.81
4012;BME280;2020;48.682;9.024;2023-04-08T06:39:34;96760.56;;;5.90;99.69
4012;BME280;2020;48.682;9.024;2023-04-08T06:42:00;96767.13;;;5.94;100.00
4012;BME280;2020;48.682;9.024;2023-04-08T06:44:25;96774.31;;;5.79;99.13
4012;BME280;2020;48.682;9.024;2023-04-08T06:46:50;96770.09;;;5.89;100.00
4012;BME280;2020;48.682;9.024;2023-04-08T06:49:16;96782.88;;;5.91;100.00
4012;BME280;2020;48.682;9.024;2023-04-08T06:51:41;96771.84;;;6.00;100.00
4012;BME280;2020;48.682;9.024;2023-04-08T06:54:06;96770.66;;;5.93;100.00
4012;BME280;2020;48.682;9.024;2023-04-08T06:56:34;96770.41;;;5.96;100.00
4012;BME280;2020;48.682;9.024;2023-04-08T06:58:59;96768.38;;;6.01;99.69
4012;BME280;2020;48.682;9.024;2023-04-08T07:01:24;96777.28;;;6.08;99.35
4012;BME280;2020;48.682;9.024;2023-04-08T07:03:49;96778.69;;;6.01;99.05
4012;BME280;2020;48.682;9.024;2023-04-08T07:06:15;96768.38;;;6.01;98.09
4012;BME280;2020;48.682;9.024;2023-04-08T07:08:40;96771.66;;;6.03;98.13
4012;BME280;2020;48.682;9.024;2023-04-08T07:11:06;96773.72;;;6.21;99.59
4012;BME280;2020;48.682;9.024;2023-04-08T07:13:31;96773.25;;;6.27;98.61
4012;BME280;2020;48.682;9.024;2023-04-08T07:15:56;96781.72;;;6.29;98.17
4012;BME280;2020;48.682;9.024;2023-04-08T07:18:22;96784.06;;;6.21;95.62
4012;BME280;2020;48.682;9.024;2023-04-08T07:20:51;96781.72;;;6.29;97.29
4012;BME280;2020;48.682;9.024;2023-04-08T07:23:20;96784.78;;;6.23;96.46
4012;BME280;2020;48.682;9.024;2023-04-08T07:25:46;96794.63;;;6.29;98.26
4012;BME280;2020;48.682;9.024;2023-04-08T07:28:12;96792.53;;;6.23;95.80
4012;BME280;2020;48.682;9.024;2023-04-08T07:30:37;96799.81;;;6.18;94.90
4012;BME280;2020;48.682;9.024;2023-04-08T07:33:03;96794.91;;;6.14;95.31
4012;BME280;2020;48.682;9.024;2023-04-08T07:35:28;96797.59;;;6.13;95.05
4012;BME280;2020;48.682;9.024;2023-04-08T07:37:54;96803.44;;;6.15;95.92
4012;BME280;2020;48.682;9.024;2023-04-08T07:40:19;96807.13;;;6.12;96.13
4012;BME280;2020;48.682;9.024;2023-04-08T07:42:45;96809.00;;;6.10;95.96
4012;BME280;2020;48.682;9.024;2023-04-08T07:45:10;96813.69;;;6.17;97.15
4012;BME280;2020;48.682;9.024;2023-04-08T07:47:36;96804.38;;;6.25;96.78
4012;BME280;2020;48.682;9.024;2023-04-08T07:50:02;96815.28;;;6.40;97.63
4012;BME280;2020;48.682;9.024;2023-04-08T07:52:29;96814.22;;;6.43;95.45
4012;BME280;2020;48.682;9.024;2023-04-08T07:54:54;96815.53;;;6.37;92.57
4012;BME280;2020;48.682;9.024;2023-04-08T07:57:20;96812.00;;;6.38;94.18
4012;BME280;2020;48.682;9.024;2023-04-08T07:59:45;96812.56;;;6.42;94.33
4012;BME280;2020;48.682;9.024;2023-04-08T08:02:10;96810.34;;;6.49;93.90
4012;BME280;2020;48.682;9.024;2023-04-08T08:04:36;96810.94;;;6.41;91.73
4012;BME280;2020;48.682;9.024;2023-04-08T08:07:01;96811.75;;;6.41;92.04
4012;BME280;2020;48.682;9.024;2023-04-08T08:09:26;96811.03;;;6.51;94.82
4012;BME280;2020;48.682;9.024;2023-04-08T08:11:52;96810.56;;;6.57;93.72
4012;BME280;2020;48.682;9.024;2023-04-08T08:14:17;96812.91;;;6.60;95.24
4012;BME280;2020;48.682;9.024;2023-04-08T08:16:42;96818.53;;;6.65;93.44
4012;BME280;2020;48.682;9.024;2023-04-08T08:19:08;96819.91;;;6.69;93.63
4012;BME280;2020;48.682;9.024;2023-04-08T08:21:37;96819.88;;;6.81;94.76
4012;BME280;2020;48.682;9.024;2023-04-08T08:24:02;96824.13;;;6.82;91.72
4012;BME280;2020;48.682;9.024;2023-04-08T08:26:27;96816.81;;;6.87;93.61
4012;BME280;2020;48.682;9.024;2023-04-08T08:28:53;96812.53;;;6.97;92.00
4012;BME280;2020;48.682;9.024;2023-04-08T08:31:18;96818.59;;;7.08;89.46
4012;BME280;2020;48.682;9.024;2023-04-08T08:33:44;96823.03;;;7.17;92.10
4012;BME280;2020;48.682;9.024;2023-04-08T08:36:09;96827.66;;;7.13;92.17
4012;BME280;2020;48.682;9.024;2023-04-08T08:38:34;96835.72;;;7.20;90.83
4012;BME280;2020;48.682;9.024;2023-04-08T08:41:00;96837.81;;;7.26;91.63
4012;BME280;2020;48.682;9.024;2023-04-08T08:43:27;96834.78;;;7.21;88.16
4012;BME280;2020;48.682;9.024;2023-04-08T08:45:53;96843.72;;;7.17;88.33
4012;BME280;2020;48.682;9.024;2023-04-08T08:48:18;96836.16;;;7.25;88.38
4012;BME280;2020;48.682;9.024;2023-04-08T08:50:44;96837.88;;;7.36;87.68
4012;BME280;2020;48.682;9.024;2023-04-08T08:53:10;96840.31;;;7.49;87.59
4012;BME280;2020;48.682;9.024;2023-04-08T08:55:35;96842.06;;;7.49;87.94
4012;BME280;2020;48.682;9.024;2023-04-08T08:58:03;96842.50;;;7.54;87.45
4012;BME280;2020;48.682;9.024;2023-04-08T09:00:31;96837.47;;;7.52;85.00
4012;BME280;2020;48.682;9.024;2023-04-08T09:03:17;96839.97;;;7.64;85.36
4012;BME280;2020;48.682;9.024;2023-04-08T09:05:49;96842.22;;;7.78;84.54
4012;BME280;2020;48.682;9.024;2023-04-08T09:08:31;96839.31;;;7.93;82.78
4012;BME280;2020;48.682;9.024;2023-04-08T09:11:11;96846.13;;;7.94;83.21
4012;BME280;2020;48.682;9.024;2023-04-08T09:13:37;96844.22;;;7.96;82.84
4012;BME280;2020;48.682;9.024;2023-04-08T09:16:04;96845.88;;;7.97;81.68
4012;BME280;2020;48.682;9.024;2023-04-08T09:18:31;96847.06;;;8.24;84.59
4012;BME280;2020;48.682;9.024;2023-04-08T09:21:01;96844.09;;;8.38;81.28
4012;BME280;2020;48.682;9.024;2023-04-08T09:23:46;96850.22;;;8.68;81.75
4012;BME280;2020;48.682;9.024;2023-04-08T09:26:13;96845.47;;;8.93;81.02
4012;BME280;2020;48.682;9.024;2023-04-08T09:28:40;96837.13;;;9.19;81.54
4012;BME280;2020;48.682;9.024;2023-04-08T09:31:24;96841.34;;;9.40;79.20
4012;BME280;2020;48.682;9.024;2023-04-08T09:33:54;96842.59;;;9.45;72.72
4012;BME280;2020;48.682;9.024;2023-04-08T09:36:19;96850.78;;;9.41;74.24
4012;BME280;2020;48.682;9.024;2023-04-08T09:38:45;96846.16;;;9.34;76.44
4012;BME280;2020;48.682;9.024;2023-04-08T09:41:16;96848.88;;;9.43;73.82
4012;BME280;2020;48.682;9.024;2023-04-08T09:43:47;96852.16;;;9.55;75.46
4012;BME280;2020;48.682;9.024;2023-04-08T09:46:15;96849.69;;;9.53;71.91
4012;BME280;2020;48.682;9.024;2023-04-08T09:48:48;96853.25;;;9.52;71.13
4012;BME280;2020;48.682;9.024;2023-04-08T09:51:17;96850.38;;;9.55;73.24
4012;BME280;2020;48.682;9.024;2023-04-08T09:53:47;96850.75;;;9.60;71.63
4012;BME280;2020;48.682;9.024;2023-04-08T09:56:16;96845.59;;;9.41;72.14
4012;BME280;2020;48.682;9.024;2023-04-08T09:58:51;96849.97;;;9.30;68.71
4012;BME280;2020;48.682;9.024;2023-04-08T10:01:25;96848.91;;;9.23;68.69
4012;BME280;2020;48.682;9.024;2023-04-08T10:03:53;96853.53;;;9.29;70.04
4012;BME280;2020;48.682;9.024;2023-04-08T10:06:21;96843.97;;;9.20;71.73
4012;BME280;2020;48.682;9.024;2023-04-08T10:08:52;96851.34;;;9.15;67.11
4012;BME280;2020;48.682;9.024;2023-04-08T10:11:17;96855.44;;;9.27;68.04
4012;BME280;2020;48.682;9.024;2023-04-08T10:13:43;96853.41;;;9.31;65.44
4012;BME280;2020;48.682;9.024;2023-04-08T10:16:22;96843.09;;;9.69;63.78
4012;BME280;2020;48.682;9.024;2023-04-08T10:18:50;96854.88;;;9.53;62.01
4012;BME280;2020;48.682;9.024;2023-04-08T10:21:33;96855.50;;;9.75;66.39
4012;BME280;2020;48.682;9.024;2023-04-08T10:23:59;96848.22;;;9.88;65.40
4012;BME280;2020;48.682;9.024;2023-04-08T10:26:33;96847.72;;;9.75;63.24
4012;BME280;2020;48.682;9.024;2023-04-08T10:31:48;96848.72;;;9.54;61.90
4012;BME280;2020;48.682;9.024;2023-04-08T10:34:17;96847.47;;;9.58;64.13
4012;BME280;2020;48.682;9.024;2023-04-08T10:36:43;96846.50;;;9.69;62.36
4012;BME280;2020;48.682;9.024;2023-04-08T10:39:08;96848.22;;;9.98;65.12
4012;BME280;2020;48.682;9.024;2023-04-08T10:41:34;96844.91;;;10.06;58.77
4012;BME280;2020;48.682;9.024;2023-04-08T10:44:02;96844.66;;;9.89;57.60
4012;BME280;2020;48.682;9.024;2023-04-08T10:46:28;96842.63;;;9.83;61.86
4012;BME280;2020;48.682;9.024;2023-04-08T10:48:59;96849.34;;;9.76;64.76
4012;BME280;2020;48.682;9.024;2023-04-08T10:51:31;96843.91;;;9.59;62.11
4012;BME280;2020;48.682;9.024;2023-04-08T10:54:04;96845.56;;;9.60;62.62
4012;BME280;2020;48.682;9.024;2023-04-08T10:56:30;96852.28;;;9.53;63.15
4012;BME280;2020;48.682;9.024;2023-04-08T10:58:55;96844.47;;;9.53;64.44
4012;BME280;2020;48.682;9.024;2023-04-08T11:01:21;96853.13;;;9.44;64.80
4012;BME280;2020;48.682;9.024;2023-04-08T11:03:47;96838.75;;;9.40;64.29
4012;BME280;2020;48.682;9.024;2023-04-08T11:06:12;96845.31;;;9.44;67.47
4012;BME280;2020;48.682;9.024;2023-04-08T11:08:38;96841.22;;;9.31;64.08
4012;BME280;2020;48.682;9.024;2023-04-08T11:11:04;96846.72;;;9.38;66.70
4012;BME280;2020;48.682;9.024;2023-04-08T11:13:34;96846.97;;;9.25;65.66
4012;BME280;2020;48.682;9.024;2023-04-08T11:16:00;96843.84;;;9.12;64.22
4012;BME280;2020;48.682;9.024;2023-04-08T11:18:26;96842.31;;;8.89;65.53
4012;BME280;2020;48.682;9.024;2023-04-08T11:20:52;96841.50;;;8.79;65.84
4012;BME280;2020;48.682;9.024;2023-04-08T11:23:18;96843.94;;;8.71;67.24
4012;BME280;2020;48.682;9.024;2023-04-08T11:25:45;96846.38;;;8.62;67.39
4012;BME280;2020;48.682;9.024;2023-04-08T11:28:13;96846.41;;;8.72;69.63
4012;BME280;2020;48.682;9.024;2023-04-08T11:30:40;96842.59;;;8.76;69.02
4012;BME280;2020;48.682;9.024;2023-04-08T11:33:09;96847.50;;;8.80;68.52
4012;BME280;2020;48.682;9.024;2023-04-08T11:35:39;96843.13;;;8.70;70.06
4012;BME280;2020;48.682;9.024;2023-04-08T11:38:05;96846.41;;;8.72;71.39
4012;BME280;2020;48.682;9.024;2023-04-08T11:40:30;96844.25;;;8.77;71.84
4012;BME280;2020;48.682;9.024;2023-04-08T11:42:56;96838.91;;;8.89;73.87
4012;BME280;2020;48.682;9.024;2023-04-08T11:45:21;96844.25;;;8.97;71.76
4012;BME280;2020;48.682;9.024;2023-04-08T11:47:47;96840.69;;;8.98;70.13
4012;BME280;2020;48.682;9.024;2023-04-08T11:50:21;96848.50;;;8.98;73.15
4012;BME280;2020;48.682;9.024;2023-04-08T11:52:48;96841.50;;;8.89;70.00
4012;BME280;2020;48.682;9.024;2023-04-08T11:55:26;96837.09;;;8.70;71.14
4012;BME280;2020;48.682;9.024;2023-04-08T11:57:53;96848.31;;;8.80;70.96
4012;BME280;2020;48.682;9.024;2023-04-08T12:00:19;96843.69;;;8.84;70.72
4012;BME280;2020;48.682;9.024;2023-04-08T12:02:45;96838.22;;;8.87;69.33
4012;BME280;2020;48.682;9.024;2023-04-08T12:05:12;96841.78;;;8.86;69.29
4012;BME280;2020;48.682;9.024;2023-04-08T12:07:38;96843.16;;;8.90;67.80
4012;BME280;2020;48.682;9.024;2023-04-08T12:10:03;96843.16;;;8.90;66.66
4012;BME280;2020;48.682;9.024;2023-04-08T12:12:29;96839.34;;;8.94;68.52
4012;BME280;2020;48.682;9.024;2023-04-08T12:14:55;96847.53;;;8.99;66.56
4012;BME280;2020;48.682;9.024;2023-04-08T12:17:20;96845.63;;;9.01;65.19
4012;BME280;2020;48.682;9.024;2023-04-08T12:19:45;96844.25;;;8.97;64.41
4012;BME280;2020;48.682;9.024;2023-04-08T12:22:11;96844.78;;;8.91;62.43
4012;BME280;2020;48.682;9.024;2023-04-08T12:24:36;96847.66;;;8.98;63.88
4012;BME280;2020;48.682;9.024;2023-04-08T12:27:01;96843.03;;;9.01;64.11
4012;BME280;2020;48.682;9.024;2023-04-08T12:29:28;96849.31;;;8.89;62.38
4012;BME280;2020;48.682;9.024;2023-04-08T12:31:54;96848.34;;;8.90;61.87
4012;BME280;2020;48.682;9.024;2023-04-08T12:34:19;96846.72;;;8.89;60.48
4012;BME280;2020;48.682;9.024;2023-04-08T12:36:45;96845.06;;;8.88;61.68
4012;BME280;2020;48.682;9.024;2023-04-08T12:39:11;96853.81;;;8.97;63.47
4012;BME280;2020;48.682;9.024;2023-04-08T12:41:36;96852.97;;;8.86;60.33
4012;BME280;2020;48.682;9.024;2023-04-08T12:44:02;96854.34;;;8.81;61.71
4012;BME280;2020;48.682;9.024;2023-04-08T12:46:27;96848.88;;;8.74;62.88
4012;BME280;2020;48.682;9.024;2023-04-08T12:48:52;96851.59;;;8.72;63.68
4012;BME280;2020;48.682;9.024;2023-04-08T12:51:18;96854.88;;;8.74;63.70
4012;BME280;2020;48.682;9.024;2023-04-08T12:53:43;96861.97;;;8.72;64.18
4012;BME280;2020;48.682;9.024;2023-04-08T12:56:08;96857.84;;;8.60;63.59
4012;BME280;2020;48.682;9.024;2023-04-08T12:58:35;96858.63;;;8.51;67.52
4012;BME280;2020;48.682;9.024;2023-04-08T13:01:00;96850.94;;;8.39;64.41
4012;BME280;2020;48.682;9.024;2023-04-08T13:03:25;96855.84;;;8.32;67.57
4012;BME280;2020;48.682;9.024;2023-04-08T13:05:54;96848.44;;;8.28;66.43
4012;BME280;2020;48.682;9.024;2023-04-08T13:08:19;96845.81;;;8.18;65.58
4012;BME280;2020;48.682;9.024;2023-04-08T13:10:44;96848.53;;;8.16;65.67
4012;BME280;2020;48.682;9.024;2023-04-08T13:13:10;96835.03;;;8.23;68.72
4012;BME280;2020;48.682;9.024;2023-04-08T13:15:38;96843.00;;;8.31;68.58
4012;BME280;2020;48.682;9.024;2023-04-08T13:18:03;96837.63;;;8.23;68.32
4012;BME280;2020;48.682;9.024;2023-04-08T13:20:29;96838.44;;;8.13;67.52
4012;BME280;2020;48.682;9.024;2023-04-08T13:22:54;96843.50;;;8.25;67.91
4012;BME280;2020;48.682;9.024;2023-04-08T13:25:20;96838.06;;;8.28;68.31
4012;BME280;2020;48.682;9.024;2023-04-08T13:27:45;96843.25;;;8.28;67.44
4012;BME280;2020;48.682;9.024;2023-04-08T13:30:11;96843.50;;;8.25;67.84
4012;BME280;2020;48.682;9.024;2023-04-08T13:32:36;96843.28;;;8.38;68.35